MMPR

Licenciado Gustavo Díaz Ordaz International Airport

Puerto Vallarta, Mexico
TAF MMPR 181012Z 1812/1918 04005KT P6SM BKN080 BKN250 TX30/1822Z TN25/1812Z TEMPO 1812/1816 5SM -RA BKN020CB FM181800 23010KT P6SM SCT020 BKN080 OVC250 FM190600 34005KT P6SM SCT020 SCT090 BKN250 FM191700 23010KT P6SM SCT020 BKN080 BKN250
Issued Valid From Valid To
Oct-18 @ 10:12 UTC
(2 hours ago)
Oct-18 @ 12:00 UTC
(3 minutes ago)
Oct-19 @ 18:00 UTC
(-1 days ago)
Oct-18 @ 12:00 to Oct-18 @ 18:00
TAF MMPR 181012Z 1812/1918 04005KT P6SM BKN080 BKN250 TX30/1822Z TN25/1812Z
Wind Visibility Clouds
40° at 5 knots Greater than 6 miles
  • Broken at 8,000' AGL
  • Broken at 25,000' AGL
Temporary Oct-18 @ 12:00 to Oct-18 @ 16:00
TEMPO 1812/1816 5SM -RA BKN020CB
Visibility Clouds Conditions
5 miles
  • Broken at 2,000' AGL
  • Light Rain
From Oct-18 @ 18:00 to Oct-19 @ 06:00
FM181800 23010KT P6SM SCT020 BKN080 OVC250
Wind Visibility Clouds
230° at 10 knots Greater than 6 miles
  • Scattered at 2,000' AGL
  • Broken at 8,000' AGL
  • Overcast at 25,000' AGL
From Oct-19 @ 06:00 to Oct-19 @ 17:00
FM190600 34005KT P6SM SCT020 SCT090 BKN250
Wind Visibility Clouds
340° at 5 knots Greater than 6 miles
  • Scattered at 2,000' AGL
  • Scattered at 9,000' AGL
  • Broken at 25,000' AGL
From Oct-19 @ 17:00 to Oct-19 @ 18:00
FM191700 23010KT P6SM SCT020 BKN080 BKN250
Wind Visibility Clouds
230° at 10 knots Greater than 6 miles
  • Scattered at 2,000' AGL
  • Broken at 8,000' AGL
  • Broken at 25,000' AGL
TAF MMPR 181012Z 1812/1918 04005KT P6SM BKN080 BKN250 TX30/1822Z TN25/1812Z TEMPO 1812/1816 5SM -RA BKN020CB FM181800 23010KT P6SM SCT020 BKN080 OVC250 FM190600 34005KT P6SM SCT020 SCT090 BKN250 FM191700 23010KT P6SM SCT020 BKN080 BKN250
Issued Oct-18 @ 10:12 UTC
(2 hours ago)
Valid From Oct-18 @ 12:00 UTC
(3 minutes ago)
Valid To Oct-19 @ 18:00 UTC
(-1 days ago)
Oct-18 @ 12:00 - Oct-18 @ 18:00
Wind Visibility
40° at 5 knots Greater than 6 miles
Clouds
  • Broken at 8,000' AGL
  • Broken at 25,000' AGL
Temporary Oct-18 @ 12:00 - Oct-18 @ 16:00
Clouds
  • Broken at 2,000' AGL
Conditions
  • Light Rain
From Oct-18 @ 18:00 - Oct-19 @ 06:00
Wind Visibility
230° at 10 knots Greater than 6 miles
Clouds
  • Scattered at 2,000' AGL
  • Broken at 8,000' AGL
  • Overcast at 25,000' AGL
From Oct-19 @ 06:00 - Oct-19 @ 17:00
Wind Visibility
340° at 5 knots Greater than 6 miles
Clouds
  • Scattered at 2,000' AGL
  • Scattered at 9,000' AGL
  • Broken at 25,000' AGL
From Oct-19 @ 17:00 - Oct-19 @ 18:00
Wind Visibility
230° at 10 knots Greater than 6 miles
Clouds
  • Scattered at 2,000' AGL
  • Broken at 8,000' AGL
  • Broken at 25,000' AGL